Time,TemperatureF,DewpointF,PressureIn,WindDirection,WindDirectionDegrees,WindSpeedMPH,WindSpeedGustMPH,Humidity,HourlyPrecipIn,Conditions,Clouds,dailyrainin,SoftwareType,DateUTC
2013-01-25 09:23:00,30.0,13.0,30.37,East,101,5.0,15.0,48,0.00,,,0.00,,2013-01-25 14:23:00,
2013-01-25 09:33:00,30.0,13.0,30.37,East,101,5.0,15.0,48,0.00,,,0.00,,2013-01-25 14:33:00,
2013-01-25 09:42:00,30.0,13.0,30.37,East,101,5.0,15.0,48,0.00,,,0.00,,2013-01-25 14:42:00,
2013-01-25 09:53:00,30.0,14.0,30.36,ESE,105,5.0,13.0,50,0.00,,,0.00,,2013-01-25 14:53:00,
2013-01-25 10:02:00,30.0,14.0,30.36,ESE,105,5.0,13.0,50,0.00,,,0.00,,2013-01-25 15:02:00,
2013-01-25 10:13:00,30.0,14.0,30.36,ESE,105,5.0,13.0,50,0.00,,,0.00,,2013-01-25 15:13:00,
2013-01-25 10:22:00,29.0,16.0,30.35,SSW,205,2.0,8.0,59,0.00,,,0.00,,2013-01-25 15:22:00,
2013-01-25 10:32:00,29.0,16.0,30.35,SSW,205,2.0,8.0,59,0.00,,,0.00,,2013-01-25 15:32:00,
2013-01-25 10:43:00,29.0,16.0,30.35,SSW,205,2.0,8.0,59,0.00,,,0.00,,2013-01-25 15:43:00,
2013-01-25 10:53:00,29.0,18.0,30.34,ENE,78,2.0,10.0,62,0.00,,,0.00,,2013-01-25 15:53:00,
2013-01-25 11:03:00,29.0,18.0,30.34,ENE,78,2.0,10.0,62,0.00,,,0.00,,2013-01-25 16:03:00,
2013-01-25 11:12:00,29.0,18.0,30.34,ENE,78,2.0,10.0,62,0.00,,,0.00,,2013-01-25 16:12:00,
2013-01-25 11:23:00,29.0,18.0,30.34,ENE,73,2.0,10.0,63,0.00,,,0.00,,2013-01-25 16:23:00,
2013-01-25 11:33:00,29.0,18.0,30.34,ENE,73,2.0,10.0,63,0.00,,,0.00,,2013-01-25 16:33:00,
2013-01-25 11:43:00,29.0,18.0,30.34,ENE,73,2.0,10.0,63,0.00,,,0.00,,2013-01-25 16:43:00,
2013-01-25 11:53:00,30.0,18.0,30.34,ENE,61,2.0,7.0,61,0.00,,,0.00,,2013-01-25 16:53:00,
2013-01-25 12:02:00,30.0,18.0,30.34,ENE,61,2.0,7.0,61,0.00,,,0.00,,2013-01-25 17:02:00,
2013-01-25 12:12:00,30.0,18.0,30.34,ENE,61,2.0,7.0,61,0.00,,,0.00,,2013-01-25 17:12:00,
2013-01-25 12:22:00,30.0,18.0,30.31,East,96,4.0,11.0,61,0.00,,,0.00,,2013-01-25 17:22:00,
2013-01-25 12:33:00,30.0,18.0,30.31,East,96,4.0,11.0,61,0.00,,,0.00,,2013-01-25 17:33:00,
2013-01-25 12:43:00,30.0,18.0,30.31,East,96,4.0,11.0,61,0.00,,,0.00,,2013-01-25 17:43:00,
2013-01-25 12:53:00,31.0,19.0,30.29,East,98,1.0,8.0,61,0.00,,,0.00,,2013-01-25 17:53:00,
2013-01-25 13:03:00,31.0,19.0,30.29,East,98,1.0,8.0,61,0.00,,,0.00,,2013-01-25 18:03:00,
2013-01-25 13:12:00,31.0,19.0,30.29,East,98,1.0,8.0,61,0.00,,,0.00,,2013-01-25 18:12:00,
2013-01-25 13:23:00,31.0,19.0,30.26,East,99,4.0,10.0,60,0.00,,,0.00,,2013-01-25 18:23:00,
2013-01-25 13:33:00,31.0,19.0,30.26,East,99,4.0,10.0,60,0.00,,,0.00,,2013-01-25 18:33:00,
2013-01-25 13:43:00,31.0,19.0,30.26,East,99,4.0,10.0,60,0.00,,,0.00,,2013-01-25 18:43:00,
2013-01-25 13:52:00,33.0,19.0,30.22,ESE,113,6.0,11.0,56,0.00,,,0.00,,2013-01-25 18:52:00,
2013-01-25 14:03:00,33.0,19.0,30.22,ESE,113,6.0,11.0,56,0.00,,,0.00,,2013-01-25 19:03:00,
2013-01-25 14:12:00,33.0,19.0,30.22,ESE,113,6.0,11.0,56,0.00,,,0.00,,2013-01-25 19:12:00,
2013-01-25 14:22:00,33.0,19.0,30.22,ESE,113,6.0,11.0,56,0.00,,,0.00,,2013-01-25 19:22:00,
2013-01-25 14:32:00,33.0,19.0,30.22,ESE,113,6.0,11.0,56,0.00,,,0.00,,2013-01-25 19:32:00,
2013-01-25 14:53:00,32.0,22.0,30.22,ESE,103,2.0,7.0,66,0.00,,,0.00,,2013-01-25 19:53:00,
2013-01-25 15:03:00,32.0,22.0,30.22,ESE,103,2.0,7.0,66,0.00,,,0.00,,2013-01-25 20:03:00,
2013-01-25 15:12:00,32.0,22.0,30.22,ESE,103,2.0,7.0,66,0.00,,,0.00,,2013-01-25 20:12:00,
2013-01-25 15:23:00,33.0,23.0,30.22,East,92,1.0,8.0,65,0.00,,,0.00,,2013-01-25 20:23:00,
2013-01-25 15:32:00,33.0,23.0,30.22,East,92,1.0,8.0,65,0.00,,,0.00,,2013-01-25 20:32:00,
2013-01-25 15:43:00,33.0,23.0,30.22,East,92,1.0,8.0,65,0.00,,,0.00,,2013-01-25 20:43:00,
2013-01-25 15:53:00,33.0,23.0,30.21,ENE,76,3.0,8.0,65,0.00,,,0.00,,2013-01-25 20:53:00,
2013-01-25 16:02:00,33.0,23.0,30.21,ENE,76,3.0,8.0,65,0.00,,,0.00,,2013-01-25 21:02:00,
2013-01-25 16:12:00,33.0,23.0,30.21,ENE,76,3.0,8.0,65,0.00,,,0.00,,2013-01-25 21:12:00,
2013-01-25 16:23:00,33.0,23.0,30.20,ENE,75,1.0,6.0,65,0.00,,,0.00,,2013-01-25 21:23:00,
2013-01-25 16:33:00,33.0,23.0,30.20,ENE,75,1.0,6.0,65,0.00,,,0.00,,2013-01-25 21:33:00,
2013-01-25 16:43:00,33.0,23.0,30.20,ENE,75,1.0,6.0,65,0.00,,,0.00,,2013-01-25 21:43:00,
2013-01-25 16:52:00,34.0,23.0,30.19,East,90,0.0,3.0,65,0.00,,,0.00,,2013-01-25 21:52:00,
2013-01-25 17:03:00,34.0,23.0,30.19,East,90,0.0,3.0,65,0.00,,,0.00,,2013-01-25 22:03:00,
2013-01-25 17:12:00,34.0,23.0,30.19,East,90,0.0,3.0,65,0.00,,,0.00,,2013-01-25 22:12:00,
2013-01-25 17:22:00,34.0,22.0,30.18,ESE,107,2.0,7.0,62,0.00,,,0.00,,2013-01-25 22:22:00,
2013-01-25 17:33:00,34.0,22.0,30.18,ESE,107,2.0,7.0,62,0.00,,,0.00,,2013-01-25 22:33:00,
2013-01-25 17:42:00,34.0,22.0,30.18,ESE,107,2.0,7.0,62,0.00,,,0.00,,2013-01-25 22:42:00,
2013-01-25 17:53:00,34.0,22.0,30.18,East,99,1.0,5.0,62,0.00,,,0.00,,2013-01-25 22:53:00,
2013-01-25 18:02:00,34.0,22.0,30.18,East,99,1.0,5.0,62,0.00,,,0.00,,2013-01-25 23:02:00,
2013-01-25 18:12:00,34.0,22.0,30.18,East,99,1.0,5.0,62,0.00,,,0.00,,2013-01-25 23:12:00,
2013-01-25 18:22:00,35.0,23.0,30.18,East,101,2.0,5.0,62,0.00,,,0.00,,2013-01-25 23:22:00,
2013-01-25 18:32:00,35.0,23.0,30.18,East,101,2.0,5.0,62,0.00,,,0.00,,2013-01-25 23:32:00,
2013-01-25 18:42:00,35.0,23.0,30.18,East,101,2.0,5.0,62,0.00,,,0.00,,2013-01-25 23:42:00,
2013-01-25 18:53:00,35.0,24.0,30.18,East,98,1.0,5.0,63,0.00,,,0.00,,2013-01-25 23:53:00,
2013-01-25 19:02:00,35.0,24.0,30.18,East,98,1.0,5.0,63,0.00,,,0.00,,2013-01-26 00:02:00,
2013-01-25 19:12:00,35.0,24.0,30.18,East,98,1.0,5.0,63,0.00,,,0.00,,2013-01-26 00:12:00,
2013-01-25 19:22:00,35.0,24.0,30.19,East,96,1.0,3.0,63,0.00,,,0.00,,2013-01-26 00:22:00,
2013-01-25 19:32:00,35.0,24.0,30.19,East,96,1.0,3.0,63,0.00,,,0.00,,2013-01-26 00:32:00,
2013-01-25 19:42:00,35.0,24.0,30.19,East,96,1.0,3.0,63,0.00,,,0.00,,2013-01-26 00:42:00,
2013-01-25 19:53:00,35.0,24.0,30.19,East,96,0.0,2.0,65,0.00,,,0.00,,2013-01-26 00:53:00,
2013-01-25 20:02:00,35.0,24.0,30.19,East,96,0.0,2.0,65,0.00,,,0.00,,2013-01-26 01:02:00,
2013-01-25 20:12:00,35.0,24.0,30.19,East,96,0.0,2.0,65,0.00,,,0.00,,2013-01-26 01:12:00,
2013-01-25 20:22:00,34.0,24.0,30.19,East,96,0.0,3.0,66,0.00,,,0.00,,2013-01-26 01:22:00,
2013-01-25 20:32:00,34.0,24.0,30.19,East,96,0.0,3.0,66,0.00,,,0.00,,2013-01-26 01:32:00,
2013-01-25 20:42:00,34.0,24.0,30.19,East,96,0.0,3.0,66,0.00,,,0.00,,2013-01-26 01:42:00,
2013-01-25 20:52:00,34.0,24.0,30.19,East,96,1.0,2.0,67,0.00,,,0.00,,2013-01-26 01:52:00,
2013-01-25 21:01:00,34.0,24.0,30.19,East,96,1.0,2.0,67,0.00,,,0.00,,2013-01-26 02:01:00,
2013-01-25 21:12:00,34.0,24.0,30.19,East,96,1.0,2.0,67,0.00,,,0.00,,2013-01-26 02:12:00,
2013-01-25 21:22:00,34.0,27.0,30.19,East,96,0.0,1.0,74,0.00,,,0.00,,2013-01-26 02:22:00,
2013-01-25 21:32:00,34.0,27.0,30.19,East,96,0.0,1.0,74,0.00,,,0.00,,2013-01-26 02:32:00,
2013-01-25 21:42:00,34.0,27.0,30.19,East,96,0.0,1.0,74,0.00,,,0.00,,2013-01-26 02:42:00,
2013-01-25 21:52:00,34.0,28.0,30.19,East,96,0.0,1.0,79,0.00,,,0.00,,2013-01-26 02:52:00,
2013-01-25 22:02:00,34.0,28.0,30.19,East,96,0.0,1.0,79,0.00,,,0.00,,2013-01-26 03:02:00,
2013-01-25 22:12:00,34.0,28.0,30.19,East,96,0.0,1.0,79,0.00,,,0.00,,2013-01-26 03:12:00,
2013-01-25 22:22:00,33.0,28.0,30.19,East,95,0.0,2.0,83,0.00,,,0.00,,2013-01-26 03:22:00,
2013-01-25 22:32:00,33.0,28.0,30.19,East,95,0.0,2.0,83,0.00,,,0.00,,2013-01-26 03:32:00,
2013-01-25 22:43:00,33.0,28.0,30.19,East,95,0.0,2.0,83,0.00,,,0.00,,2013-01-26 03:43:00,
2013-01-25 22:52:00,33.0,29.0,30.19,East,95,0.0,1.0,86,0.00,,,0.00,,2013-01-26 03:52:00,
2013-01-25 23:02:00,33.0,29.0,30.19,East,95,0.0,1.0,86,0.00,,,0.00,,2013-01-26 04:02:00,
2013-01-25 23:12:00,33.0,29.0,30.19,East,95,0.0,1.0,86,0.00,,,0.00,,2013-01-26 04:12:00,
2013-01-25 23:21:00,33.0,30.0,30.19,East,95,0.0,1.0,90,0.01,,,0.01,,2013-01-26 04:21:00,
2013-01-25 23:32:00,33.0,30.0,30.19,East,95,0.0,1.0,90,0.01,,,0.01,,2013-01-26 04:32:00,
2013-01-25 23:43:00,33.0,30.0,30.19,East,95,0.0,1.0,90,0.01,,,0.01,,2013-01-26 04:43:00,
2013-01-25 23:52:00,33.0,31.0,30.20,East,95,0.0,0.0,92,0.02,,,0.02,,2013-01-26 04:52:00,